createdAt,value
2018-08-19T00:00:18.732Z,101710.07
2018-08-19T00:00:40.479Z,101709.15
2018-08-19T00:01:02.222Z,101711.00
2018-08-19T00:01:23.962Z,101707.98
2018-08-19T00:01:45.749Z,101707.98
2018-08-19T00:02:07.494Z,101710.07
2018-08-19T00:02:29.259Z,101707.84
2018-08-19T00:02:51.011Z,101710.07
2018-08-19T00:03:12.757Z,101710.07
2018-08-19T00:03:34.520Z,101703.91
2018-08-19T00:03:56.270Z,101704.83
2018-08-19T00:04:18.031Z,101708.37
2018-08-19T00:04:39.779Z,101706.92
2018-08-19T00:05:05.443Z,101704.83
2018-08-19T00:05:27.237Z,101708.77
2018-08-19T00:05:48.999Z,101711.14
2018-08-19T00:06:10.767Z,101708.77
2018-08-19T00:06:32.528Z,101711.92
2018-08-19T00:06:54.291Z,101709.15
2018-08-19T00:07:16.035Z,101708.77
2018-08-19T00:07:37.798Z,101711.00
2018-08-19T00:07:59.585Z,101711.38
2018-08-19T00:08:21.371Z,101707.45
2018-08-19T00:08:43.119Z,101707.45
2018-08-19T00:09:10.397Z,101708.77
2018-08-19T00:09:32.156Z,101706.53
2018-08-19T00:09:53.919Z,101703.91
2018-08-19T00:10:15.694Z,101702.59
2018-08-19T00:10:38.743Z,101698.27
2018-08-19T00:11:01.659Z,101700.75
2018-08-19T00:11:23.411Z,101701.28
2018-08-19T00:11:45.381Z,101702.59
2018-08-19T00:12:07.128Z,101704.30
2018-08-19T00:12:29.407Z,101698.13
2018-08-19T00:12:51.159Z,101706.53
2018-08-19T00:13:13.351Z,101700.75
2018-08-19T00:13:35.094Z,101706.92
2018-08-19T00:13:56.858Z,101706.00
2018-08-19T00:14:19.497Z,101707.84
2018-08-19T00:14:41.253Z,101706.53
2018-08-19T00:15:03.012Z,101702.59
2018-08-19T00:15:24.764Z,101709.54
2018-08-19T00:15:46.545Z,101709.15
2018-08-19T00:16:08.308Z,101709.15
2018-08-19T00:16:30.063Z,101705.61
2018-08-19T00:16:51.806Z,101710.85
2018-08-19T00:17:13.559Z,101713.86
2018-08-19T00:17:35.309Z,101706.38
2018-08-19T00:17:57.054Z,101709.93
2018-08-19T00:18:18.811Z,101712.94
2018-08-19T00:18:40.563Z,101707.70
2018-08-19T00:19:02.314Z,101705.47
2018-08-19T00:19:24.072Z,101707.70
2018-08-19T00:19:45.863Z,101708.62
2018-08-19T00:20:07.638Z,101711.38
2018-08-19T00:20:29.389Z,101704.69
2018-08-19T00:20:51.154Z,101704.69
2018-08-19T00:21:12.906Z,101703.77
2018-08-19T00:21:34.647Z,101706.38
2018-08-19T00:21:56.615Z,101709.01
2018-08-19T00:22:18.359Z,101712.55
2018-08-19T00:22:40.324Z,101706.92
2018-08-19T00:23:02.099Z,101709.93
2018-08-19T00:23:23.858Z,101706.38
2018-08-19T00:23:48.628Z,101709.01
2018-08-19T00:24:10.394Z,101709.40
2018-08-19T00:24:32.142Z,101711.24
2018-08-19T00:24:53.903Z,101706.38
2018-08-19T00:25:15.658Z,101706.92
2018-08-19T00:25:38.289Z,101712.16
2018-08-19T00:26:00.067Z,101707.30
2018-08-19T00:26:21.805Z,101708.62
2018-08-19T00:26:43.554Z,101711.63
2018-08-19T00:27:05.300Z,101708.62
2018-08-19T00:27:27.056Z,101706.38
2018-08-19T00:27:48.809Z,101705.61
2018-08-19T00:28:10.868Z,101704.69
2018-08-19T00:28:32.627Z,101699.83
2018-08-19T00:28:54.376Z,101702.06
2018-08-19T00:29:16.403Z,101703.38
2018-08-19T00:29:38.171Z,101705.08
2018-08-19T00:29:59.921Z,101707.30
2018-08-19T00:30:21.680Z,101707.30
2018-08-19T00:30:43.433Z,101707.30
2018-08-19T00:31:05.203Z,101710.32
2018-08-19T00:31:26.955Z,101709.01
2018-08-19T00:31:48.711Z,101704.16
2018-08-19T00:32:10.450Z,101707.70
2018-08-19T00:32:32.198Z,101707.70
2018-08-19T00:32:53.941Z,101710.32
2018-08-19T00:33:15.742Z,101706.38
2018-08-19T00:33:37.489Z,101707.30
2018-08-19T00:33:59.234Z,101706.00
2018-08-19T00:34:33.512Z,101702.84
2018-08-19T00:34:55.282Z,101709.78
2018-08-19T00:35:17.033Z,101705.47
2018-08-19T00:35:38.801Z,101711.87
2018-08-19T00:36:00.560Z,101706.24
2018-08-19T00:36:24.982Z,101707.55
2018-08-19T00:36:46.746Z,101705.32
2018-08-19T00:37:08.509Z,101711.09
2018-08-19T00:37:30.267Z,101707.55
2018-08-19T00:37:52.037Z,101710.17
2018-08-19T00:38:14.758Z,101708.87
2018-08-19T00:38:36.545Z,101709.78
2018-08-19T00:38:58.299Z,101713.72
2018-08-19T00:39:20.067Z,101709.25
2018-08-19T00:39:41.828Z,101708.87
2018-08-19T00:40:09.779Z,101709.78
2018-08-19T00:40:31.567Z,101709.25
2018-08-19T00:40:53.336Z,101712.41
2018-08-19T00:41:15.091Z,101710.56
2018-08-19T00:41:36.874Z,101712.02
2018-08-19T00:41:58.627Z,101708.48
2018-08-19T00:42:20.366Z,101708.48
2018-08-19T00:42:42.130Z,101705.85
2018-08-19T00:43:03.884Z,101714.64
2018-08-19T00:43:25.638Z,101715.56
2018-08-19T00:43:47.402Z,101712.94
2018-08-19T00:44:09.159Z,101718.19
2018-08-19T00:44:31.052Z,101715.17
2018-08-19T00:44:52.802Z,101714.64
2018-08-19T00:45:15.785Z,101713.33
2018-08-19T00:45:37.556Z,101712.94
2018-08-19T00:45:59.301Z,101708.48
2018-08-19T00:46:21.058Z,101708.48
2018-08-19T00:46:42.844Z,101710.32
2018-08-19T00:47:04.601Z,101708.87
2018-08-19T00:47:26.383Z,101711.63
2018-08-19T00:47:48.888Z,101710.70
2018-08-19T00:48:11.438Z,101707.55
2018-08-19T00:48:33.179Z,101705.85
2018-08-19T00:48:54.935Z,101709.40
2018-08-19T00:49:16.700Z,101711.63
2018-08-19T00:49:38.457Z,101710.17
2018-08-19T00:50:02.734Z,101707.70
2018-08-19T00:50:25.339Z,101706.77
2018-08-19T00:50:47.120Z,101704.01
2018-08-19T00:51:08.895Z,101704.93
2018-08-19T00:51:30.652Z,101706.77
2018-08-19T00:51:57.416Z,101704.16
2018-08-19T00:52:19.175Z,101705.85
2018-08-19T00:52:40.935Z,101709.40
2018-08-19T00:53:02.690Z,101700.08
2018-08-19T00:53:24.447Z,101698.77
2018-08-19T00:53:46.216Z,101698.37
2018-08-19T00:54:07.967Z,101700.08
2018-08-19T00:54:30.904Z,101699.69
2018-08-19T00:54:52.672Z,101697.45
2018-08-19T00:55:14.425Z,101701.00
2018-08-19T00:55:41.752Z,101699.16
2018-08-19T00:56:03.552Z,101696.14
2018-08-19T00:56:25.320Z,101694.30
2018-08-19T00:56:48.817Z,101699.16
2018-08-19T00:57:10.610Z,101696.92
2018-08-19T00:57:32.361Z,101699.16
2018-08-19T00:57:58.169Z,101701.77
2018-08-19T00:58:19.935Z,101700.08
2018-08-19T00:58:41.687Z,101698.37
2018-08-19T00:59:03.431Z,101699.69
2018-08-19T00:59:26.107Z,101699.69
2018-08-19T00:59:47.865Z,101699.30
2018-08-19T01:00:09.626Z,101700.61
2018-08-19T01:00:31.386Z,101699.30
2018-08-19T01:00:53.162Z,101702.31
2018-08-19T01:01:15.467Z,101701.77
2018-08-19T01:01:37.251Z,101699.69
2018-08-19T01:01:59.112Z,101701.92
2018-08-19T01:02:20.889Z,101704.01
2018-08-19T01:02:42.654Z,101699.69
2018-08-19T01:03:04.408Z,101703.62
2018-08-19T01:03:26.152Z,101701.92
2018-08-19T01:03:47.906Z,101699.69
2018-08-19T01:04:09.967Z,101704.69
2018-08-19T01:04:31.732Z,101700.22
2018-08-19T01:04:53.499Z,101691.42
2018-08-19T01:05:15.250Z,101698.91
2018-08-19T01:05:37.005Z,101700.22
2018-08-19T01:05:58.770Z,101690.50
2018-08-19T01:06:20.526Z,101695.75
2018-08-19T01:06:47.606Z,101695.75
2018-08-19T01:07:09.355Z,101694.83
2018-08-19T01:07:31.135Z,101695.36
2018-08-19T01:07:52.881Z,101693.12
2018-08-19T01:08:15.214Z,101691.28
2018-08-19T01:08:36.962Z,101695.75
2018-08-19T01:08:58.720Z,101697.98
2018-08-19T01:09:20.482Z,101693.52
2018-08-19T01:09:42.232Z,101689.19
2018-08-19T01:10:03.992Z,101697.45
2018-08-19T01:10:25.757Z,101695.22
2018-08-19T01:10:47.551Z,101699.69
2018-08-19T01:11:09.304Z,101697.59
2018-08-19T01:11:31.815Z,101700.61
2018-08-19T01:11:53.572Z,101697.06
2018-08-19T01:12:15.327Z,101693.12
2018-08-19T01:12:37.120Z,101700.08
2018-08-19T01:12:58.886Z,101693.12
2018-08-19T01:13:20.639Z,101693.52
2018-08-19T01:13:42.393Z,101691.81
2018-08-19T01:14:04.156Z,101692.20
2018-08-19T01:14:25.917Z,101694.83
2018-08-19T01:14:47.671Z,101688.27
2018-08-19T01:15:09.431Z,101692.73
2018-08-19T01:15:31.174Z,101697.06
2018-08-19T01:15:52.942Z,101695.36
2018-08-19T01:16:14.708Z,101694.05
2018-08-19T01:16:36.479Z,101691.03
2018-08-19T01:16:58.237Z,101688.27
2018-08-19T01:17:19.992Z,101690.12
2018-08-19T01:17:42.744Z,101692.73
2018-08-19T01:18:04.503Z,101693.12
2018-08-19T01:18:26.256Z,101686.03
2018-08-19T01:18:50.808Z,101685.65
2018-08-19T01:19:12.566Z,101684.73
2018-08-19T01:19:34.339Z,101689.19
2018-08-19T01:20:00.437Z,101690.50
2018-08-19T01:20:22.958Z,101688.66
2018-08-19T01:20:44.728Z,101684.73
2018-08-19T01:21:07.075Z,101682.10
2018-08-19T01:21:28.924Z,101686.81
2018-08-19T01:21:50.935Z,101687.88
2018-08-19T01:22:12.691Z,101689.58
2018-08-19T01:22:34.460Z,101684.34
2018-08-19T01:22:56.241Z,101688.66
2018-08-19T01:23:18.007Z,101685.65
2018-08-19T01:23:39.802Z,101689.58
2018-08-19T01:24:04.416Z,101686.95
2018-08-19T01:24:26.167Z,101689.19
2018-08-19T01:24:47.915Z,101692.73
2018-08-19T01:25:09.680Z,101683.02
2018-08-19T01:25:31.444Z,101692.73
2018-08-19T01:25:53.207Z,101688.27
2018-08-19T01:26:14.986Z,101687.73
2018-08-19T01:26:37.969Z,101686.95
2018-08-19T01:26:59.722Z,101685.65
2018-08-19T01:27:22.500Z,101689.05
2018-08-19T01:27:44.252Z,101687.35
2018-08-19T01:28:06.029Z,101690.50
2018-08-19T01:28:27.779Z,101689.58
2018-08-19T01:28:49.523Z,101692.73
2018-08-19T01:29:11.863Z,101688.80
2018-08-19T01:29:39.153Z,101691.42
2018-08-19T01:30:00.897Z,101689.72
2018-08-19T01:30:23.053Z,101691.81
2018-08-19T01:30:44.813Z,101685.65
2018-08-19T01:31:06.562Z,101686.56
2018-08-19T01:31:28.331Z,101686.18
2018-08-19T01:31:50.095Z,101684.73
2018-08-19T01:32:12.795Z,101691.81
2018-08-19T01:32:34.550Z,101695.36
2018-08-19T01:32:56.314Z,101697.98
2018-08-19T01:33:18.095Z,101695.36
2018-08-19T01:33:39.877Z,101694.97
2018-08-19T01:34:01.635Z,101700.22
2018-08-19T01:34:23.389Z,101700.47
2018-08-19T01:34:46.070Z,101699.69
2018-08-19T01:35:07.837Z,101701.00
2018-08-19T01:35:35.059Z,101702.84
2018-08-19T01:35:56.817Z,101704.93
2018-08-19T01:36:18.571Z,101697.59
2018-08-19T01:36:40.340Z,101697.06
2018-08-19T01:37:02.111Z,101695.75
2018-08-19T01:37:23.859Z,101698.37
2018-08-19T01:37:45.614Z,101699.30
2018-08-19T01:38:07.350Z,101694.05
2018-08-19T01:38:29.135Z,101698.37
2018-08-19T01:38:50.906Z,101693.91
2018-08-19T01:39:13.351Z,101695.75
2018-08-19T01:39:35.095Z,101698.37
2018-08-19T01:39:56.848Z,101696.92
2018-08-19T01:40:18.928Z,101693.91
2018-08-19T01:40:40.676Z,101696.14
2018-08-19T01:41:02.423Z,101701.92
2018-08-19T01:41:24.541Z,101696.28
2018-08-19T01:41:46.313Z,101698.37
2018-08-19T01:42:08.551Z,101697.06
2018-08-19T01:42:30.327Z,101697.06
2018-08-19T01:42:52.100Z,101697.06
2018-08-19T01:43:13.853Z,101695.36
2018-08-19T01:43:35.644Z,101697.45
2018-08-19T01:43:58.651Z,101694.83
2018-08-19T01:44:21.399Z,101694.30
2018-08-19T01:44:43.182Z,101697.84
2018-08-19T01:45:04.972Z,101695.75
2018-08-19T01:45:26.723Z,101697.06
2018-08-19T01:45:48.482Z,101700.61
2018-08-19T01:46:10.222Z,101699.69
2018-08-19T01:46:32.957Z,101694.05
2018-08-19T01:47:01.162Z,101691.81
2018-08-19T01:47:22.938Z,101693.12
2018-08-19T01:47:44.704Z,101692.20
2018-08-19T01:48:06.458Z,101691.28
2018-08-19T01:48:28.771Z,101692.59
2018-08-19T01:48:50.575Z,101689.58
2018-08-19T01:49:12.327Z,101696.67
2018-08-19T01:49:34.092Z,101697.06
2018-08-19T01:49:55.866Z,101696.67
2018-08-19T01:50:18.231Z,101701.53
2018-08-19T01:50:40.003Z,101698.77
2018-08-19T01:51:01.766Z,101698.37
2018-08-19T01:51:23.533Z,101703.23
2018-08-19T01:51:45.582Z,101701.00
2018-08-19T01:52:07.335Z,101703.23
2018-08-19T01:52:29.084Z,101700.61
2018-08-19T01:52:51.027Z,101700.08
2018-08-19T01:53:12.787Z,101694.83
2018-08-19T01:53:34.535Z,101703.23
2018-08-19T01:53:56.312Z,101695.36
2018-08-19T01:54:24.006Z,101693.12
2018-08-19T01:54:45.779Z,101692.59
2018-08-19T01:55:07.570Z,101694.83
2018-08-19T01:55:29.321Z,101696.14
2018-08-19T01:55:51.070Z,101695.75
2018-08-19T01:56:12.835Z,101696.14
2018-08-19T01:56:35.287Z,101699.16
2018-08-19T01:56:58.317Z,101696.67
2018-08-19T01:57:20.058Z,101695.22
2018-08-19T01:57:45.510Z,101695.61
2018-08-19T01:58:07.265Z,101694.44
2018-08-19T01:58:30.700Z,101697.45
2018-08-19T01:58:52.460Z,101695.22
2018-08-19T01:59:14.279Z,101693.52
2018-08-19T01:59:36.131Z,101696.14
2018-08-19T01:59:57.889Z,101689.58
2018-08-19T02:00:19.730Z,101692.20
2018-08-19T02:00:41.489Z,101685.65
2018-08-19T02:01:03.243Z,101687.35
2018-08-19T02:01:25.000Z,101686.42
2018-08-19T02:01:46.750Z,101686.95
2018-08-19T02:02:08.516Z,101688.27
2018-08-19T02:02:30.266Z,101684.34
2018-08-19T02:02:52.828Z,101683.02
2018-08-19T02:03:14.576Z,101683.55
2018-08-19T02:03:36.336Z,101689.19
2018-08-19T02:03:58.106Z,101681.72
2018-08-19T02:04:20.376Z,101684.34
2018-08-19T02:04:47.564Z,101684.73
2018-08-19T02:05:09.320Z,101688.27
2018-08-19T02:05:31.068Z,101684.73
2018-08-19T02:05:52.827Z,101686.95
2018-08-19T02:06:14.593Z,101685.65
2018-08-19T02:06:36.345Z,101687.49
2018-08-19T02:06:58.093Z,101686.03
2018-08-19T02:07:19.851Z,101687.49
2018-08-19T02:07:41.624Z,101684.34
2018-08-19T02:08:04.533Z,101686.56
2018-08-19T02:08:26.292Z,101686.56
2018-08-19T02:08:48.073Z,101689.58
2018-08-19T02:09:11.689Z,101688.27
2018-08-19T02:09:33.458Z,101691.42
2018-08-19T02:09:58.743Z,101689.58
2018-08-19T02:10:20.496Z,101688.27
2018-08-19T02:10:42.253Z,101687.49
2018-08-19T02:11:04.028Z,101687.10
2018-08-19T02:11:25.803Z,101688.27
2018-08-19T02:11:48.263Z,101688.80
2018-08-19T02:12:10.018Z,101687.10
2018-08-19T02:12:39.824Z,101687.49
2018-08-19T02:13:01.904Z,101686.72
2018-08-19T02:13:23.664Z,101689.33
2018-08-19T02:13:45.421Z,101687.10
2018-08-19T02:14:07.212Z,101682.78
2018-08-19T02:14:28.979Z,101685.02
2018-08-19T02:14:50.758Z,101685.79
2018-08-19T02:15:12.525Z,101689.72
2018-08-19T02:15:34.302Z,101688.80
2018-08-19T02:15:58.736Z,101688.80
2018-08-19T02:16:20.490Z,101681.86
2018-08-19T02:16:42.266Z,101682.25
2018-08-19T02:17:04.020Z,101683.41
2018-08-19T02:17:25.795Z,101687.35
2018-08-19T02:17:53.075Z,101683.41
2018-08-19T02:18:14.830Z,101683.95
2018-08-19T02:18:36.574Z,101687.49
2018-08-19T02:18:58.339Z,101686.56
2018-08-19T02:19:20.130Z,101682.63
2018-08-19T02:19:41.905Z,101690.12
2018-08-19T02:20:03.694Z,101689.58
2018-08-19T02:20:25.448Z,101682.63
2018-08-19T02:20:47.231Z,101685.26
2018-08-19T02:21:08.988Z,101684.34
2018-08-19T02:21:30.739Z,101683.95
2018-08-19T02:21:53.139Z,101688.27
2018-08-19T02:22:14.896Z,101684.34
2018-08-19T02:22:36.656Z,101685.65
2018-08-19T02:22:59.291Z,101687.88
2018-08-19T02:23:21.039Z,101683.41
2018-08-19T02:23:42.795Z,101687.73
2018-08-19T02:24:04.552Z,101683.80
2018-08-19T02:24:26.311Z,101688.27
2018-08-19T02:24:48.072Z,101684.73
2018-08-19T02:25:09.859Z,101686.03
2018-08-19T02:25:31.620Z,101690.89
2018-08-19T02:25:53.395Z,101684.73
2018-08-19T02:26:19.418Z,101686.03
2018-08-19T02:26:41.184Z,101680.26
2018-08-19T02:27:02.944Z,101685.50
2018-08-19T02:27:24.711Z,101687.73
2018-08-19T02:27:46.492Z,101689.58
2018-08-19T02:28:08.382Z,101686.03
2018-08-19T02:28:30.153Z,101688.27
2018-08-19T02:28:51.915Z,101686.56
2018-08-19T02:29:17.927Z,101689.58
2018-08-19T02:29:39.683Z,101686.56
2018-08-19T02:30:01.434Z,101685.26
2018-08-19T02:30:23.224Z,101690.12
2018-08-19T02:30:50.502Z,101693.52
2018-08-19T02:31:12.256Z,101693.12
2018-08-19T02:31:33.994Z,101693.12
2018-08-19T02:31:58.930Z,101690.12
2018-08-19T02:32:20.708Z,101690.89
2018-08-19T02:32:42.452Z,101684.73
2018-08-19T02:33:04.466Z,101683.95
2018-08-19T02:33:26.226Z,101689.19
2018-08-19T02:33:47.978Z,101684.73
2018-08-19T02:34:09.718Z,101688.66
2018-08-19T02:34:40.546Z,101685.65
2018-08-19T02:35:02.321Z,101689.58
2018-08-19T02:35:24.105Z,101684.34
2018-08-19T02:35:50.120Z,101693.12
2018-08-19T02:36:11.863Z,101693.12
2018-08-19T02:36:33.623Z,101688.80
2018-08-19T02:36:56.003Z,101690.50
2018-08-19T02:37:18.219Z,101683.02
2018-08-19T02:37:39.967Z,101683.80
2018-08-19T02:38:01.714Z,101682.49
2018-08-19T02:38:23.743Z,101683.41
2018-08-19T02:38:45.513Z,101683.02
2018-08-19T02:39:07.286Z,101680.79
2018-08-19T02:39:29.036Z,101684.73
2018-08-19T02:39:50.804Z,101680.79
2018-08-19T02:40:16.691Z,101675.94
2018-08-19T02:40:38.466Z,101676.86
2018-08-19T02:41:00.214Z,101683.02
2018-08-19T02:41:21.965Z,101677.78
2018-08-19T02:41:47.979Z,101679.88
2018-08-19T02:42:09.732Z,101680.02
2018-08-19T02:42:32.375Z,101682.63
2018-08-19T02:42:54.127Z,101674.63
2018-08-19T02:43:15.884Z,101674.23
2018-08-19T02:43:37.644Z,101677.25
2018-08-19T02:43:59.390Z,101672.14
2018-08-19T02:44:21.141Z,101678.56
2018-08-19T02:44:42.891Z,101674.23
2018-08-19T02:45:06.399Z,101678.17
2018-08-19T02:45:28.157Z,101676.86
2018-08-19T02:45:49.974Z,101676.47
2018-08-19T02:46:11.734Z,101672.92
2018-08-19T02:46:33.478Z,101675.55
2018-08-19T02:46:55.227Z,101676.86
2018-08-19T02:47:16.980Z,101675.55
2018-08-19T02:47:38.740Z,101670.30
2018-08-19T02:48:00.493Z,101673.31
2018-08-19T02:48:22.247Z,101678.17
2018-08-19T02:48:45.111Z,101674.23
2018-08-19T02:49:06.885Z,101674.63
2018-08-19T02:49:28.633Z,101675.02
2018-08-19T02:49:50.444Z,101681.58
2018-08-19T02:50:12.211Z,101678.95
2018-08-19T02:50:33.975Z,101672.78
2018-08-19T02:50:55.764Z,101676.72
2018-08-19T02:51:18.723Z,101675.94
2018-08-19T02:51:40.489Z,101677.25
2018-08-19T02:52:02.248Z,101678.56
2018-08-19T02:52:27.114Z,101670.16
2018-08-19T02:52:48.860Z,101672.39
2018-08-19T02:53:10.616Z,101674.09
2018-08-19T02:53:32.385Z,101675.80
2018-08-19T02:53:54.129Z,101678.56
2018-08-19T02:54:15.883Z,101677.25
2018-08-19T02:54:37.650Z,101675.41
2018-08-19T02:55:00.613Z,101671.47
2018-08-19T02:55:22.380Z,101678.02
2018-08-19T02:55:44.134Z,101681.19
2018-08-19T02:56:05.917Z,101679.48
2018-08-19T02:56:27.672Z,101679.88
2018-08-19T02:56:49.433Z,101675.02
2018-08-19T02:57:11.195Z,101674.48
2018-08-19T02:57:33.808Z,101678.02
2018-08-19T02:58:00.960Z,101675.80
2018-08-19T02:58:22.720Z,101678.02
2018-08-19T02:58:45.373Z,101675.02
2018-08-19T02:59:07.126Z,101677.64
2018-08-19T02:59:28.883Z,101677.64
2018-08-19T02:59:50.677Z,101678.56
2018-08-19T03:00:12.635Z,101676.33
2018-08-19T03:00:34.395Z,101678.56
2018-08-19T03:00:56.153Z,101680.26
2018-08-19T03:01:18.501Z,101677.25
2018-08-19T03:01:40.255Z,101675.02
2018-08-19T03:02:02.019Z,101673.31
2018-08-19T03:02:23.775Z,101671.08
2018-08-19T03:02:45.544Z,101673.70
2018-08-19T03:03:07.294Z,101675.41
2018-08-19T03:03:29.048Z,101676.33
2018-08-19T03:03:50.816Z,101672.78
2018-08-19T03:04:12.575Z,101675.41
2018-08-19T03:04:34.322Z,101674.63
2018-08-19T03:04:56.893Z,101675.94
2018-08-19T03:05:18.663Z,101675.02
2018-08-19T03:05:42.763Z,101675.80
2018-08-19T03:06:04.508Z,101674.09
2018-08-19T03:06:26.289Z,101671.86
2018-08-19T03:06:48.042Z,101674.09
2018-08-19T03:07:09.778Z,101667.53
2018-08-19T03:07:32.212Z,101671.08
2018-08-19T03:07:53.970Z,101674.09
2018-08-19T03:08:15.727Z,101674.63
2018-08-19T03:08:38.170Z,101672.00
2018-08-19T03:09:00.314Z,101675.94
2018-08-19T03:09:22.067Z,101670.69
2018-08-19T03:09:43.849Z,101670.16
2018-08-19T03:10:11.670Z,101669.23
2018-08-19T03:10:33.465Z,101675.16
2018-08-19T03:10:55.222Z,101673.17
2018-08-19T03:11:16.974Z,101672.39
2018-08-19T03:11:38.760Z,101675.80
2018-08-19T03:12:00.513Z,101673.03
2018-08-19T03:12:22.287Z,101671.47
2018-08-19T03:12:44.550Z,101676.58
2018-08-19T03:13:06.303Z,101665.69
2018-08-19T03:13:28.060Z,101670.16
2018-08-19T03:13:49.809Z,101673.70
2018-08-19T03:14:11.562Z,101668.98
2018-08-19T03:14:33.318Z,101664.13
2018-08-19T03:14:55.394Z,101665.05
2018-08-19T03:15:17.216Z,101664.52
2018-08-19T03:15:38.978Z,101666.76
2018-08-19T03:16:00.764Z,101666.76
2018-08-19T03:16:22.510Z,101666.23
2018-08-19T03:16:44.280Z,101667.53
2018-08-19T03:17:06.022Z,101667.53
2018-08-19T03:17:28.598Z,101666.61
2018-08-19T03:17:50.346Z,101671.08
2018-08-19T03:18:12.091Z,101660.84
2018-08-19T03:18:33.851Z,101665.55
2018-08-19T03:18:55.609Z,101663.99
2018-08-19T03:19:17.361Z,101670.80
2018-08-19T03:19:39.116Z,101669.09
2018-08-19T03:20:01.367Z,101668.70
2018-08-19T03:20:23.119Z,101660.84
2018-08-19T03:20:44.880Z,101660.45
2018-08-19T03:21:06.650Z,101667.92
2018-08-19T03:21:28.426Z,101660.84
2018-08-19T03:21:52.391Z,101660.98
2018-08-19T03:22:14.156Z,101665.83
2018-08-19T03:23:39.194Z,101663.60
2018-08-19T03:24:00.971Z,101660.45
2018-08-19T03:24:22.727Z,101663.21
2018-08-19T03:24:44.480Z,101658.75
2018-08-19T03:25:06.234Z,101658.36
2018-08-19T03:25:27.987Z,101658.89
2018-08-19T03:25:49.766Z,101660.20
2018-08-19T03:26:11.522Z,101658.36
2018-08-19T03:26:33.275Z,101657.97
2018-08-19T03:26:55.051Z,101656.13
2018-08-19T03:27:16.975Z,101657.83
2018-08-19T03:27:38.735Z,101657.05
2018-08-19T03:28:00.487Z,101657.83
2018-08-19T03:28:22.246Z,101659.13
2018-08-19T03:28:44.002Z,101657.30
2018-08-19T03:29:13.952Z,101662.15
2018-08-19T03:29:39.971Z,101658.22
2018-08-19T03:30:03.924Z,101662.15
2018-08-19T03:30:25.691Z,101659.52
2018-08-19T03:30:53.728Z,101667.53
2018-08-19T03:31:15.490Z,101660.45
2018-08-19T03:31:37.271Z,101659.13
2018-08-19T03:32:00.360Z,101659.91
2018-08-19T03:32:22.557Z,101665.16
2018-08-19T03:32:49.904Z,101660.98
2018-08-19T03:33:11.652Z,101659.13
2018-08-19T03:33:33.408Z,101660.70
2018-08-19T03:33:55.165Z,101655.98
2018-08-19T03:34:16.938Z,101660.45
2018-08-19T03:34:38.688Z,101663.06
2018-08-19T03:35:06.038Z,101661.23
2018-08-19T03:35:27.783Z,101663.06
2018-08-19T03:35:49.534Z,101659.13
2018-08-19T03:36:11.287Z,101663.99
2018-08-19T03:36:33.040Z,101659.66
2018-08-19T03:36:55.434Z,101661.37
2018-08-19T03:37:17.215Z,101661.37
2018-08-19T03:37:38.972Z,101660.45
2018-08-19T03:38:05.008Z,101663.99
2018-08-19T03:38:27.285Z,101663.06
2018-08-19T03:38:49.036Z,101660.06
2018-08-19T03:39:10.791Z,101660.45
2018-08-19T03:39:32.556Z,101660.45
2018-08-19T03:39:54.295Z,101662.68
2018-08-19T03:40:16.059Z,101662.15
2018-08-19T03:40:37.809Z,101667.53
2018-08-19T03:40:59.569Z,101660.45
2018-08-19T03:41:21.330Z,101667.92
2018-08-19T03:41:43.085Z,101661.76
2018-08-19T03:42:04.842Z,101665.30
2018-08-19T03:42:26.615Z,101663.99
2018-08-19T03:42:48.377Z,101658.75
2018-08-19T03:43:10.934Z,101660.98
2018-08-19T03:43:32.694Z,101663.60
2018-08-19T03:43:58.733Z,101662.29
2018-08-19T03:44:20.481Z,101663.99
2018-08-19T03:44:42.497Z,101666.23
2018-08-19T03:45:09.764Z,101663.60
2018-08-19T03:45:31.536Z,101670.16
2018-08-19T03:45:53.324Z,101659.13
2018-08-19T03:46:19.572Z,101660.06
2018-08-19T03:46:41.342Z,101657.30
2018-08-19T03:47:07.584Z,101656.91
2018-08-19T03:47:29.358Z,101658.22
2018-08-19T03:47:52.965Z,101661.23
2018-08-19T03:48:14.711Z,101662.29
2018-08-19T03:48:36.450Z,101657.44
2018-08-19T03:48:58.219Z,101657.83
2018-08-19T03:49:19.976Z,101659.13
2018-08-19T03:49:41.795Z,101656.91
2018-08-19T03:50:07.798Z,101663.06
2018-08-19T03:50:29.546Z,101659.28
2018-08-19T03:50:51.306Z,101661.37
2018-08-19T03:51:13.063Z,101659.13
2018-08-19T03:51:34.806Z,101658.75
2018-08-19T03:51:56.555Z,101658.75
2018-08-19T03:52:18.364Z,101655.20
2018-08-19T03:52:40.151Z,101657.83
2018-08-19T03:53:01.922Z,101661.37
2018-08-19T03:53:23.666Z,101660.45
2018-08-19T03:53:45.425Z,101657.97
2018-08-19T03:54:07.165Z,101659.66
2018-08-19T03:54:28.910Z,101668.45
2018-08-19T03:54:50.679Z,101661.76
2018-08-19T03:55:16.487Z,101661.76
2018-08-19T03:55:38.260Z,101659.91
2018-08-19T03:56:00.006Z,101663.99
2018-08-19T03:56:27.200Z,101665.30
2018-08-19T03:56:48.963Z,101664.77
2018-08-19T03:57:10.710Z,101662.68
2018-08-19T03:57:32.466Z,101657.30
2018-08-19T03:57:56.113Z,101666.23
2018-08-19T03:58:17.872Z,101664.91
2018-08-19T03:58:39.630Z,101667.53
2018-08-19T03:59:05.930Z,101663.60
2018-08-19T03:59:27.704Z,101663.60
2018-08-19T03:59:49.472Z,101660.45
2018-08-19T04:00:11.232Z,101663.99
2018-08-19T04:00:35.003Z,101663.99
2018-08-19T04:00:56.747Z,101663.06
2018-08-19T04:01:18.503Z,101665.69
2018-08-19T04:01:43.405Z,101660.06
2018-08-19T04:02:05.164Z,101667.53
2018-08-19T04:02:26.907Z,101661.37
2018-08-19T04:02:48.663Z,101661.76
2018-08-19T04:03:15.988Z,101660.98
2018-08-19T04:03:37.742Z,101665.30
2018-08-19T04:03:59.494Z,101665.05
2018-08-19T04:04:21.234Z,101657.69
2018-08-19T04:04:43.041Z,101662.68
2018-08-19T04:05:04.798Z,101667.14
2018-08-19T04:05:30.799Z,101667.92
2018-08-19T04:05:53.571Z,101670.55
2018-08-19T04:06:15.328Z,101662.29
2018-08-19T04:06:38.618Z,101662.68
2018-08-19T04:07:00.372Z,101666.61
2018-08-19T04:07:22.124Z,101667.14
2018-08-19T04:07:44.235Z,101660.84
2018-08-19T04:08:05.987Z,101669.23
2018-08-19T04:08:33.284Z,101662.68
2018-08-19T04:08:55.042Z,101673.17
2018-08-19T04:09:16.804Z,101665.30
2018-08-19T04:09:38.563Z,101666.08
2018-08-19T04:10:00.315Z,101667.78
2018-08-19T04:10:22.070Z,101667.00
2018-08-19T04:10:45.011Z,101667.00
2018-08-19T04:11:06.766Z,101668.31
2018-08-19T04:11:28.531Z,101668.31
2018-08-19T04:11:50.266Z,101669.09
2018-08-19T04:12:12.444Z,101665.55
2018-08-19T04:12:34.207Z,101670.55
2018-08-19T04:12:55.999Z,101664.77
2018-08-19T04:13:20.848Z,101664.77
2018-08-19T04:13:42.648Z,101668.31
2018-08-19T04:14:04.396Z,101662.92
2018-08-19T04:14:26.609Z,101668.70
2018-08-19T04:14:48.359Z,101672.25
2018-08-19T04:15:10.708Z,101670.41